»·PEaware :: DAL1741 KSLC-KPDX

DAL1741 :: KSLC-KPDX

FLIGHT INFORMATION

Flight Status: Arrived
Operator:
Delta Air Lines
More flights by this operator :: More flights under this callsign
Pilot: Joe P. (13940)
Aircraft: BOEING 737-700
(B737)
More flights by this aircraft type
Origin: KSLC Salt Lake City Intl
United States
Destination: KPDX Portland Intl
United States
More flights between these airports :: More routes between these airports
Route: +CGULL1 TWF J15 BOI J163 BKE JOTBA HHOOD4
File this flight plan on PilotEdge
Remarks: KSEA -PBN / A1B1C1D1L1O1S1 NAV / RNVD1E2A1 DOF / 181020 REG / N389DA EET / KZSE0054 RVR / 200 PER / C
Altitude:
(Current/Filed)
360ft
Speed:
(Current/Filed)
448kts
Departed: 20-Oct-18 10:03 AM
Arrived: 20-Oct-18 11:30 AM
Distance/Time
Traveled:
546nm/1:27
Distance/Time
To Go:
Arrived

Flight Plot

Page will automatically refresh every two minutes.

Flight plan parsing failed; only flown route is shown


Map Options




Map Legend


Flown Route
Filed Route
Departure Airport
Arrival Airport
Navaid (VOR, NDB)
Fix

Horizontal Profiles

Position Reports

Time Latitude Longitude Heading Altitude Ground
Speed
20-Oct-18 09:01 40.788533 -111.980747 280 4235ft 0kts
20-Oct-18 09:02 40.788533 -111.980747 280 4235ft 0kts
20-Oct-18 09:03 40.788533 -111.980747 280 4235ft 0kts
20-Oct-18 09:04 40.788533 -111.980747 280 4235ft 0kts
20-Oct-18 09:05 40.788533 -111.980747 280 4235ft 0kts
20-Oct-18 09:06 40.788533 -111.980747 280 4235ft 0kts
20-Oct-18 09:07 40.788533 -111.980747 280 4235ft 0kts
20-Oct-18 09:08 40.788533 -111.980747 280 4235ft 0kts
20-Oct-18 09:09 40.788533 -111.980747 280 4235ft 0kts
20-Oct-18 09:10 40.788533 -111.980747 280 4235ft 0kts
20-Oct-18 09:11 40.788533 -111.980747 280 4235ft 0kts
20-Oct-18 09:12 40.788533 -111.980747 280 4235ft 0kts
20-Oct-18 09:13 40.788533 -111.980747 280 4235ft 0kts
20-Oct-18 09:14 40.788533 -111.980747 280 4235ft 0kts
20-Oct-18 09:15 40.788533 -111.980747 280 4235ft 0kts
20-Oct-18 09:16 40.788533 -111.980747 280 4235ft 0kts
20-Oct-18 09:17 40.788533 -111.980747 280 4235ft 0kts
20-Oct-18 09:18 40.788533 -111.980747 280 4235ft 0kts
20-Oct-18 09:19 40.788533 -111.980747 280 4235ft 0kts
20-Oct-18 09:20 40.788533 -111.980747 280 4235ft 0kts
20-Oct-18 09:21 40.788533 -111.980747 280 4235ft 0kts
20-Oct-18 09:22 40.788533 -111.980747 280 4235ft 0kts
20-Oct-18 09:23 40.788533 -111.980747 280 4235ft 0kts
20-Oct-18 09:24 40.788533 -111.980747 280 4235ft 0kts
20-Oct-18 09:25 40.788533 -111.980747 280 4235ft 0kts
20-Oct-18 09:26 40.788533 -111.980747 280 4235ft 0kts
20-Oct-18 09:27 40.788533 -111.980747 280 4235ft 0kts
20-Oct-18 09:28 40.788533 -111.980747 280 4235ft 0kts
20-Oct-18 09:29 40.788533 -111.980747 280 4235ft 0kts
20-Oct-18 09:30 40.788533 -111.980747 280 4235ft 0kts
20-Oct-18 09:31 40.788533 -111.980747 280 4235ft 0kts
20-Oct-18 09:32 40.788533 -111.980747 280 4235ft 0kts
20-Oct-18 09:33 40.788533 -111.980747 280 4235ft 0kts
20-Oct-18 09:34 40.788533 -111.980747 280 4235ft 0kts
20-Oct-18 09:35 40.788533 -111.980747 280 4235ft 0kts
20-Oct-18 09:36 40.788533 -111.980747 280 4235ft 0kts
20-Oct-18 09:37 40.788533 -111.980747 280 4235ft 0kts
20-Oct-18 09:38 40.788533 -111.980747 280 4235ft 0kts
20-Oct-18 09:39 40.788533 -111.980747 280 4235ft 0kts
20-Oct-18 09:40 40.788533 -111.980747 280 4235ft 0kts
20-Oct-18 09:41 40.788533 -111.980747 280 4235ft 0kts
20-Oct-18 09:42 40.788533 -111.980747 280 4235ft 0kts
20-Oct-18 09:43 40.788533 -111.980747 280 4235ft 0kts
20-Oct-18 09:44 40.788533 -111.980747 280 4235ft 0kts
20-Oct-18 09:45 40.788533 -111.980747 280 4235ft 0kts
20-Oct-18 09:46 40.788533 -111.980747 280 4235ft 0kts
20-Oct-18 09:47 40.788533 -111.980747 280 4235ft 0kts
20-Oct-18 09:48 40.788533 -111.980747 280 4235ft 0kts
20-Oct-18 09:49 40.788431 -111.980050 280 4235ft 2kts
20-Oct-18 09:50 40.788362 -111.979584 280 4235ft 0kts
20-Oct-18 09:51 40.788362 -111.979584 280 4235ft 0kts
20-Oct-18 09:52 40.788362 -111.979584 280 4235ft 0kts
20-Oct-18 09:53 40.788363 -111.979585 280 4235ft 0kts
20-Oct-18 09:54 40.788363 -111.979586 280 4235ft 0kts
20-Oct-18 09:55 40.788363 -111.979588 280 4235ft 0kts
20-Oct-18 09:56 40.788363 -111.979589 280 4235ft 0kts
20-Oct-18 09:57 40.788368 -111.979619 281 4235ft 1kts
20-Oct-18 09:58 40.791257 -111.979267 13 4235ft 16kts
20-Oct-18 09:59 40.795043 -111.977619 354 4235ft 18kts
20-Oct-18 10:00 40.800394 -111.978324 355 4235ft 21kts
20-Oct-18 10:01 40.806221 -111.979019 354 4235ft 13kts
20-Oct-18 10:02 40.807538 -111.978553 86 4235ft 0kts
20-Oct-18 10:03 40.807538 -111.978551 86 4235ft 0kts
20-Oct-18 10:04 40.806801 -111.976797 170 4235ft 0kts
20-Oct-18 10:05 40.783449 -111.974175 176 4441ft 185kts
20-Oct-18 10:06 40.766994 -112.028685 292 7344ft 224kts
20-Oct-18 10:07 40.794093 -112.116883 292 9331ft 282kts
20-Oct-18 10:08 40.820943 -112.202227 297 11221ft 329kts
20-Oct-18 10:09 40.909056 -112.294177 329 14355ft 362kts
20-Oct-18 10:10 40.981784 -112.353631 329 16742ft 375kts
20-Oct-18 10:11 41.088065 -112.440765 329 19795ft 393kts
20-Oct-18 10:12 41.165780 -112.506494 329 21809ft 404kts
20-Oct-18 10:13 41.256982 -112.598329 324 23952ft 418kts
20-Oct-18 10:14 41.340315 -112.710423 313 25794ft 435kts
20-Oct-18 10:15 41.422619 -112.832363 312 27425ft 449kts
20-Oct-18 10:16 41.506114 -112.960566 311 28800ft 465kts
20-Oct-18 10:17 41.591873 -113.092880 311 30190ft 475kts
20-Oct-18 10:18 41.678702 -113.226558 311 31867ft 474kts
20-Oct-18 10:19 41.765125 -113.360235 311 33355ft 474kts
20-Oct-18 10:20 41.851102 -113.494065 311 34750ft 474kts
20-Oct-18 10:21 41.936527 -113.627699 311 36142ft 470kts
20-Oct-18 10:22 42.022412 -113.762192 310 36405ft 473kts
20-Oct-18 10:23 42.107278 -113.896474 310 36395ft 470kts
20-Oct-18 10:24 42.191728 -114.030410 310 36393ft 470kts
20-Oct-18 10:25 42.276413 -114.164705 311 36390ft 469kts
20-Oct-18 10:26 42.361298 -114.299225 310 36390ft 469kts
20-Oct-18 10:27 42.445183 -114.433695 310 36390ft 467kts
20-Oct-18 10:28 42.529596 -114.566516 311 36390ft 465kts
20-Oct-18 10:29 42.614831 -114.698755 311 36393ft 464kts
20-Oct-18 10:30 42.699702 -114.831293 310 36396ft 463kts
20-Oct-18 10:31 42.784364 -114.962891 310 36400ft 462kts
20-Oct-18 10:32 42.868917 -115.095394 310 36398ft 462kts
20-Oct-18 10:33 42.952843 -115.227705 310 36393ft 462kts
20-Oct-18 10:34 43.036795 -115.360714 310 36386ft 461kts
20-Oct-18 10:35 43.120193 -115.493469 310 36379ft 460kts
20-Oct-18 10:36 43.203421 -115.626564 309 36376ft 459kts
20-Oct-18 10:37 43.286572 -115.760155 309 36376ft 459kts
20-Oct-18 10:38 43.367540 -115.890480 309 36375ft 457kts
20-Oct-18 10:39 43.449942 -116.024031 309 36373ft 457kts
20-Oct-18 10:40 43.531805 -116.157707 309 36370ft 457kts
20-Oct-18 10:41 43.623609 -116.278948 317 36370ft 458kts
20-Oct-18 10:42 43.719120 -116.395843 317 36371ft 458kts
20-Oct-18 10:43 43.793065 -116.536622 295 36377ft 454kts
20-Oct-18 10:44 43.850535 -116.692513 294 36392ft 454kts
20-Oct-18 10:45 43.907742 -116.849281 294 36397ft 455kts
20-Oct-18 10:46 43.964191 -117.006172 294 36399ft 455kts
20-Oct-18 10:47 44.020732 -117.163469 294 36399ft 451kts
20-Oct-18 10:48 44.076348 -117.318283 293 36397ft 449kts
20-Oct-18 10:49 44.131945 -117.474206 293 36394ft 450kts
20-Oct-18 10:50 44.187563 -117.630732 293 36389ft 451kts
20-Oct-18 10:51 44.243102 -117.787719 293 36385ft 451kts
20-Oct-18 10:52 44.298498 -117.945213 293 36377ft 452kts
20-Oct-18 10:53 44.353572 -118.102747 293 36362ft 451kts
20-Oct-18 10:54 44.408470 -118.260755 293 36350ft 450kts
20-Oct-18 10:55 44.462610 -118.417593 292 36340ft 447kts
20-Oct-18 10:56 44.516427 -118.574508 292 36331ft 445kts
20-Oct-18 10:57 44.569838 -118.731215 292 36326ft 444kts
20-Oct-18 10:58 44.622124 -118.887715 291 36320ft 442kts
20-Oct-18 10:59 44.673153 -119.044435 291 36317ft 441kts
20-Oct-18 11:00 44.724732 -119.200878 292 36312ft 441kts
20-Oct-18 11:01 44.775672 -119.357647 291 36302ft 440kts
20-Oct-18 11:02 44.826255 -119.514449 291 35067ft 438kts
20-Oct-18 11:03 44.875606 -119.668778 292 33406ft 425kts
20-Oct-18 11:04 44.923967 -119.818604 291 31830ft 413kts
20-Oct-18 11:05 44.971102 -119.963905 292 30328ft 401kts
20-Oct-18 11:06 45.017224 -120.105122 292 28861ft 392kts
20-Oct-18 11:07 45.074306 -120.235327 296 27391ft 385kts
20-Oct-18 11:08 45.119031 -120.371294 292 25937ft 378kts
20-Oct-18 11:09 45.162301 -120.505839 293 24453ft 373kts
20-Oct-18 11:10 45.210416 -120.634216 297 22919ft 365kts
20-Oct-18 11:11 45.259247 -120.758984 297 21402ft 357kts
20-Oct-18 11:12 45.306309 -120.881733 297 19922ft 350kts
20-Oct-18 11:13 45.352232 -121.002328 297 18467ft 343kts
20-Oct-18 11:14 45.397665 -121.121936 297 16814ft 341kts
20-Oct-18 11:15 45.437135 -121.242163 285 15390ft 328kts
20-Oct-18 11:16 45.460514 -121.364214 284 14031ft 315kts
20-Oct-18 11:17 45.484126 -121.483521 284 12710ft 310kts
20-Oct-18 11:18 45.507150 -121.600583 284 11419ft 303kts
20-Oct-18 11:19 45.528848 -121.715593 278 10189ft 293kts
20-Oct-18 11:20 45.533830 -121.827135 271 8616ft 279kts
20-Oct-18 11:21 45.537376 -121.934058 271 7594ft 248kts
20-Oct-18 11:22 45.541759 -122.021436 273 7155ft 196kts
20-Oct-18 11:23 45.519408 -122.088763 232 6348ft 190kts
20-Oct-18 11:24 45.488614 -122.150185 239 5275ft 191kts
20-Oct-18 11:25 45.466940 -122.220947 251 3852ft 194kts
20-Oct-18 11:26 45.475579 -122.290071 298 3779ft 184kts
20-Oct-18 11:27 45.499399 -122.351306 300 3398ft 167kts
20-Oct-18 11:28 45.521650 -122.408222 300 2508ft 160kts
20-Oct-18 11:29 45.542814 -122.462375 299 1682ft 151kts
20-Oct-18 11:30 45.562956 -122.513967 297 886ft 151kts
20-Oct-18 11:31 45.583369 -122.566291 297 104ft 147kts
20-Oct-18 11:32 45.594258 -122.594363 291 26ft 20kts
20-Oct-18 11:33 45.594244 -122.595431 241 26ft 0kts
20-Oct-18 11:34 45.591867 -122.598108 209 26ft 18kts
20-Oct-18 11:35 45.589949 -122.594318 33 26ft 2kts
20-Oct-18 11:36 45.590208 -122.594078 31 26ft 0kts
20-Oct-18 11:37 45.590208 -122.594078 31 26ft 0kts
20-Oct-18 11:38 45.590208 -122.594078 31 26ft 0kts
20-Oct-18 11:39 45.590208 -122.594078 31 26ft 0kts
20-Oct-18 11:40 45.590208 -122.594078 31 26ft 0kts
20-Oct-18 11:41 45.590208 -122.594078 31 26ft 0kts
20-Oct-18 11:42 45.590208 -122.594078 31 26ft 0kts

Navigation Log

Ident Type
Flight plan parsing failed, navigation log unavailable